sensor_id;sensor_type;location;lat;lon;timestamp;P1;durP1;ratioP1;P2;durP2;ratioP2
68284;SDS011;55114;52.052;5.238;2023-03-23T00:01:32;9.95;;;3.55;;
68284;SDS011;55114;52.052;5.238;2023-03-23T00:04:02;7.60;;;3.80;;
68284;SDS011;55114;52.052;5.238;2023-03-23T00:06:28;8.10;;;3.75;;
68284;SDS011;55114;52.052;5.238;2023-03-23T00:08:58;8.13;;;3.53;;
68284;SDS011;55114;52.052;5.238;2023-03-23T00:11:27;8.48;;;3.53;;
68284;SDS011;55114;52.052;5.238;2023-03-23T00:13:55;9.95;;;3.58;;
68284;SDS011;55114;52.052;5.238;2023-03-23T00:16:23;9.80;;;3.83;;
68284;SDS011;55114;52.052;5.238;2023-03-23T00:19:04;9.13;;;3.30;;
68284;SDS011;55114;52.052;5.238;2023-03-23T00:21:32;8.10;;;3.20;;
68284;SDS011;55114;52.052;5.238;2023-03-23T00:24:09;10.40;;;3.78;;
68284;SDS011;55114;52.052;5.238;2023-03-23T00:26:36;8.65;;;3.80;;
68284;SDS011;55114;52.052;5.238;2023-03-23T00:29:06;9.95;;;3.40;;
68284;SDS011;55114;52.052;5.238;2023-03-23T00:31:32;7.65;;;3.20;;
68284;SDS011;55114;52.052;5.238;2023-03-23T00:34:00;7.73;;;3.17;;
68284;SDS011;55114;52.052;5.238;2023-03-23T00:36:26;6.38;;;2.97;;
68284;SDS011;55114;52.052;5.238;2023-03-23T00:38:53;8.75;;;3.05;;
68284;SDS011;55114;52.052;5.238;2023-03-23T00:41:23;7.68;;;3.20;;
68284;SDS011;55114;52.052;5.238;2023-03-23T00:43:52;6.32;;;2.90;;
68284;SDS011;55114;52.052;5.238;2023-03-23T00:46:18;6.20;;;2.83;;
68284;SDS011;55114;52.052;5.238;2023-03-23T00:48:45;6.90;;;3.20;;
68284;SDS011;55114;52.052;5.238;2023-03-23T00:51:12;7.72;;;3.10;;
68284;SDS011;55114;52.052;5.238;2023-03-23T00:53:38;6.35;;;2.90;;
68284;SDS011;55114;52.052;5.238;2023-03-23T00:56:05;6.30;;;2.80;;
68284;SDS011;55114;52.052;5.238;2023-03-23T00:58:31;5.93;;;2.47;;
68284;SDS011;55114;52.052;5.238;2023-03-23T01:00:58;6.43;;;2.92;;
68284;SDS011;55114;52.052;5.238;2023-03-23T01:03:24;8.48;;;2.92;;
68284;SDS011;55114;52.052;5.238;2023-03-23T01:05:51;6.80;;;2.80;;
68284;SDS011;55114;52.052;5.238;2023-03-23T01:08:17;7.05;;;2.78;;
68284;SDS011;55114;52.052;5.238;2023-03-23T01:10:44;7.13;;;2.60;;
68284;SDS011;55114;52.052;5.238;2023-03-23T01:13:10;9.60;;;2.80;;
68284;SDS011;55114;52.052;5.238;2023-03-23T01:15:36;5.50;;;2.60;;
68284;SDS011;55114;52.052;5.238;2023-03-23T01:18:03;6.50;;;2.83;;
68284;SDS011;55114;52.052;5.238;2023-03-23T01:20:29;5.35;;;2.40;;
68284;SDS011;55114;52.052;5.238;2023-03-23T01:22:56;5.10;;;2.67;;
68284;SDS011;55114;52.052;5.238;2023-03-23T01:25:26;5.95;;;2.63;;
68284;SDS011;55114;52.052;5.238;2023-03-23T01:27:52;6.03;;;2.53;;
68284;SDS011;55114;52.052;5.238;2023-03-23T01:30:19;8.77;;;2.95;;
68284;SDS011;55114;52.052;5.238;2023-03-23T01:32:45;5.70;;;2.70;;
68284;SDS011;55114;52.052;5.238;2023-03-23T01:35:14;7.07;;;2.43;;
68284;SDS011;55114;52.052;5.238;2023-03-23T01:37:41;7.82;;;2.95;;
68284;SDS011;55114;52.052;5.238;2023-03-23T01:40:07;6.63;;;2.58;;
68284;SDS011;55114;52.052;5.238;2023-03-23T01:42:35;6.53;;;3.00;;
68284;SDS011;55114;52.052;5.238;2023-03-23T01:47:46;5.23;;;2.47;;
68284;SDS011;55114;52.052;5.238;2023-03-23T01:50:12;8.13;;;2.70;;
68284;SDS011;55114;52.052;5.238;2023-03-23T01:52:38;9.30;;;3.20;;
68284;SDS011;55114;52.052;5.238;2023-03-23T01:55:04;5.07;;;2.70;;
68284;SDS011;55114;52.052;5.238;2023-03-23T01:57:31;5.90;;;2.75;;
68284;SDS011;55114;52.052;5.238;2023-03-23T01:59:57;6.40;;;2.97;;
68284;SDS011;55114;52.052;5.238;2023-03-23T02:02:26;6.18;;;2.72;;
68284;SDS011;55114;52.052;5.238;2023-03-23T02:04:55;6.50;;;3.00;;
68284;SDS011;55114;52.052;5.238;2023-03-23T02:07:22;6.35;;;2.90;;
68284;SDS011;55114;52.052;5.238;2023-03-23T02:09:51;6.75;;;3.05;;
68284;SDS011;55114;52.052;5.238;2023-03-23T02:12:18;10.93;;;2.80;;
68284;SDS011;55114;52.052;5.238;2023-03-23T02:14:44;6.47;;;2.85;;
68284;SDS011;55114;52.052;5.238;2023-03-23T02:17:23;5.97;;;3.25;;
68284;SDS011;55114;52.052;5.238;2023-03-23T02:25:16;6.00;;;2.80;;
68284;SDS011;55114;52.052;5.238;2023-03-23T02:30:30;5.85;;;2.78;;
68284;SDS011;55114;52.052;5.238;2023-03-23T02:33:16;6.57;;;3.03;;
68284;SDS011;55114;52.052;5.238;2023-03-23T02:35:46;6.07;;;2.80;;
68284;SDS011;55114;52.052;5.238;2023-03-23T02:38:15;7.10;;;3.27;;
68284;SDS011;55114;52.052;5.238;2023-03-23T02:40:42;6.43;;;2.95;;
68284;SDS011;55114;52.052;5.238;2023-03-23T02:43:12;6.40;;;3.00;;
68284;SDS011;55114;52.052;5.238;2023-03-23T02:45:40;6.50;;;2.90;;
68284;SDS011;55114;52.052;5.238;2023-03-23T02:48:07;5.30;;;2.95;;
68284;SDS011;55114;52.052;5.238;2023-03-23T02:50:35;6.37;;;3.33;;
68284;SDS011;55114;52.052;5.238;2023-03-23T02:53:02;8.38;;;2.75;;
68284;SDS011;55114;52.052;5.238;2023-03-23T02:55:30;6.97;;;3.03;;
68284;SDS011;55114;52.052;5.238;2023-03-23T02:57:57;5.68;;;2.60;;
68284;SDS011;55114;52.052;5.238;2023-03-23T03:00:26;6.07;;;2.85;;
68284;SDS011;55114;52.052;5.238;2023-03-23T03:02:53;6.53;;;3.10;;
68284;SDS011;55114;52.052;5.238;2023-03-23T03:10:22;7.47;;;2.65;;
68284;SDS011;55114;52.052;5.238;2023-03-23T03:12:53;7.90;;;2.50;;
68284;SDS011;55114;52.052;5.238;2023-03-23T03:18:01;6.95;;;2.40;;
68284;SDS011;55114;52.052;5.238;2023-03-23T03:20:28;4.95;;;2.05;;
68284;SDS011;55114;52.052;5.238;2023-03-23T03:22:55;6.28;;;2.20;;
68284;SDS011;55114;52.052;5.238;2023-03-23T03:25:22;8.10;;;2.03;;
68284;SDS011;55114;52.052;5.238;2023-03-23T03:27:49;5.67;;;2.23;;
68284;SDS011;55114;52.052;5.238;2023-03-23T03:30:17;4.68;;;1.80;;
68284;SDS011;55114;52.052;5.238;2023-03-23T03:32:47;9.55;;;2.42;;
68284;SDS011;55114;52.052;5.238;2023-03-23T03:35:14;4.65;;;1.70;;
68284;SDS011;55114;52.052;5.238;2023-03-23T03:37:40;5.00;;;2.00;;
68284;SDS011;55114;52.052;5.238;2023-03-23T03:40:08;4.50;;;1.53;;
68284;SDS011;55114;52.052;5.238;2023-03-23T03:42:40;6.38;;;2.20;;
68284;SDS011;55114;52.052;5.238;2023-03-23T03:45:07;5.82;;;1.52;;
68284;SDS011;55114;52.052;5.238;2023-03-23T03:47:34;6.85;;;1.70;;
68284;SDS011;55114;52.052;5.238;2023-03-23T03:50:00;4.13;;;1.75;;
68284;SDS011;55114;52.052;5.238;2023-03-23T03:52:26;6.93;;;1.73;;
68284;SDS011;55114;52.052;5.238;2023-03-23T03:54:54;5.25;;;1.70;;
68284;SDS011;55114;52.052;5.238;2023-03-23T03:57:21;4.00;;;1.67;;
68284;SDS011;55114;52.052;5.238;2023-03-23T03:59:47;6.75;;;2.17;;
68284;SDS011;55114;52.052;5.238;2023-03-23T04:02:14;4.88;;;1.73;;
68284;SDS011;55114;52.052;5.238;2023-03-23T04:04:45;4.77;;;1.90;;
68284;SDS011;55114;52.052;5.238;2023-03-23T04:07:11;6.65;;;1.67;;
68284;SDS011;55114;52.052;5.238;2023-03-23T04:09:39;5.95;;;1.80;;
68284;SDS011;55114;52.052;5.238;2023-03-23T04:12:05;5.43;;;1.70;;
68284;SDS011;55114;52.052;5.238;2023-03-23T04:14:32;4.93;;;1.60;;
68284;SDS011;55114;52.052;5.238;2023-03-23T04:16:58;5.13;;;1.50;;
68284;SDS011;55114;52.052;5.238;2023-03-23T04:19:24;6.55;;;1.45;;
68284;SDS011;55114;52.052;5.238;2023-03-23T04:21:50;5.65;;;1.38;;
68284;SDS011;55114;52.052;5.238;2023-03-23T04:24:17;6.15;;;1.25;;
68284;SDS011;55114;52.052;5.238;2023-03-23T04:26:46;5.78;;;1.85;;
68284;SDS011;55114;52.052;5.238;2023-03-23T04:29:12;4.07;;;1.30;;
68284;SDS011;55114;52.052;5.238;2023-03-23T04:31:38;5.80;;;1.60;;
68284;SDS011;55114;52.052;5.238;2023-03-23T04:34:05;7.18;;;1.80;;
68284;SDS011;55114;52.052;5.238;2023-03-23T04:36:31;4.78;;;1.10;;
68284;SDS011;55114;52.052;5.238;2023-03-23T04:39:00;4.55;;;1.20;;
68284;SDS011;55114;52.052;5.238;2023-03-23T04:41:31;6.60;;;1.27;;
68284;SDS011;55114;52.052;5.238;2023-03-23T04:43:57;4.55;;;1.20;;
68284;SDS011;55114;52.052;5.238;2023-03-23T04:46:27;7.93;;;1.33;;
68284;SDS011;55114;52.052;5.238;2023-03-23T04:48:56;6.15;;;1.20;;
68284;SDS011;55114;52.052;5.238;2023-03-23T04:51:27;7.80;;;1.17;;
68284;SDS011;55114;52.052;5.238;2023-03-23T04:53:54;5.53;;;1.20;;
68284;SDS011;55114;52.052;5.238;2023-03-23T04:56:21;6.95;;;1.90;;
68284;SDS011;55114;52.052;5.238;2023-03-23T04:58:47;6.60;;;1.38;;
68284;SDS011;55114;52.052;5.238;2023-03-23T05:01:13;5.03;;;1.30;;
68284;SDS011;55114;52.052;5.238;2023-03-23T05:03:40;4.80;;;1.50;;
68284;SDS011;55114;52.052;5.238;2023-03-23T05:06:07;9.23;;;1.27;;
68284;SDS011;55114;52.052;5.238;2023-03-23T05:08:34;6.35;;;1.30;;
68284;SDS011;55114;52.052;5.238;2023-03-23T05:11:04;7.13;;;1.30;;
68284;SDS011;55114;52.052;5.238;2023-03-23T05:13:31;6.32;;;1.88;;
68284;SDS011;55114;52.052;5.238;2023-03-23T05:15:57;12.25;;;1.60;;
68284;SDS011;55114;52.052;5.238;2023-03-23T05:18:23;10.27;;;1.50;;
68284;SDS011;55114;52.052;5.238;2023-03-23T05:20:51;4.63;;;1.42;;
68284;SDS011;55114;52.052;5.238;2023-03-23T05:23:17;5.60;;;1.20;;
68284;SDS011;55114;52.052;5.238;2023-03-23T05:25:52;6.63;;;1.20;;
68284;SDS011;55114;52.052;5.238;2023-03-23T05:28:18;5.65;;;1.48;;
68284;SDS011;55114;52.052;5.238;2023-03-23T05:30:44;8.07;;;1.30;;
68284;SDS011;55114;52.052;5.238;2023-03-23T05:33:10;6.55;;;1.27;;
68284;SDS011;55114;52.052;5.238;2023-03-23T05:35:36;6.68;;;1.30;;
68284;SDS011;55114;52.052;5.238;2023-03-23T05:38:02;4.68;;;1.25;;
68284;SDS011;55114;52.052;5.238;2023-03-23T05:40:29;6.15;;;1.30;;
68284;SDS011;55114;52.052;5.238;2023-03-23T05:42:55;5.23;;;1.57;;
68284;SDS011;55114;52.052;5.238;2023-03-23T05:45:24;5.78;;;1.33;;
68284;SDS011;55114;52.052;5.238;2023-03-23T05:47:50;7.47;;;1.15;;
68284;SDS011;55114;52.052;5.238;2023-03-23T05:50:16;8.88;;;1.20;;
68284;SDS011;55114;52.052;5.238;2023-03-23T05:52:42;8.35;;;1.35;;
68284;SDS011;55114;52.052;5.238;2023-03-23T05:55:09;8.90;;;1.60;;
68284;SDS011;55114;52.052;5.238;2023-03-23T05:57:35;8.52;;;1.50;;
68284;SDS011;55114;52.052;5.238;2023-03-23T06:00:01;10.10;;;1.42;;
68284;SDS011;55114;52.052;5.238;2023-03-23T06:02:40;7.82;;;1.70;;
68284;SDS011;55114;52.052;5.238;2023-03-23T06:05:09;8.93;;;1.73;;
68284;SDS011;55114;52.052;5.238;2023-03-23T06:07:35;8.10;;;1.70;;
68284;SDS011;55114;52.052;5.238;2023-03-23T06:10:03;7.45;;;2.00;;
68284;SDS011;55114;52.052;5.238;2023-03-23T06:12:29;6.85;;;1.42;;
68284;SDS011;55114;52.052;5.238;2023-03-23T06:14:56;5.95;;;1.65;;
68284;SDS011;55114;52.052;5.238;2023-03-23T06:17:23;5.72;;;1.58;;
68284;SDS011;55114;52.052;5.238;2023-03-23T06:19:49;9.23;;;1.67;;
68284;SDS011;55114;52.052;5.238;2023-03-23T06:22:16;7.10;;;1.60;;
68284;SDS011;55114;52.052;5.238;2023-03-23T06:24:42;8.60;;;1.85;;
68284;SDS011;55114;52.052;5.238;2023-03-23T06:27:09;11.05;;;2.05;;
68284;SDS011;55114;52.052;5.238;2023-03-23T06:29:35;5.47;;;1.63;;
68284;SDS011;55114;52.052;5.238;2023-03-23T06:32:02;9.13;;;1.50;;
68284;SDS011;55114;52.052;5.238;2023-03-23T06:34:29;7.82;;;1.70;;
68284;SDS011;55114;52.052;5.238;2023-03-23T06:36:56;8.73;;;1.70;;
68284;SDS011;55114;52.052;5.238;2023-03-23T06:39:22;4.95;;;1.60;;
68284;SDS011;55114;52.052;5.238;2023-03-23T06:41:49;8.35;;;1.30;;
68284;SDS011;55114;52.052;5.238;2023-03-23T06:44:15;7.07;;;1.73;;
68284;SDS011;55114;52.052;5.238;2023-03-23T06:46:41;7.65;;;1.95;;
68284;SDS011;55114;52.052;5.238;2023-03-23T06:49:08;7.45;;;2.10;;
68284;SDS011;55114;52.052;5.238;2023-03-23T06:51:34;5.53;;;1.92;;
68284;SDS011;55114;52.052;5.238;2023-03-23T06:54:01;6.55;;;1.90;;
68284;SDS011;55114;52.052;5.238;2023-03-23T06:56:27;8.40;;;1.40;;
68284;SDS011;55114;52.052;5.238;2023-03-23T06:58:55;7.72;;;1.58;;
68284;SDS011;55114;52.052;5.238;2023-03-23T07:01:21;9.45;;;1.85;;
68284;SDS011;55114;52.052;5.238;2023-03-23T07:03:47;6.47;;;1.65;;
68284;SDS011;55114;52.052;5.238;2023-03-23T07:06:14;6.80;;;1.27;;
68284;SDS011;55114;52.052;5.238;2023-03-23T07:08:41;8.30;;;1.67;;
68284;SDS011;55114;52.052;5.238;2023-03-23T07:11:07;5.97;;;1.52;;
68284;SDS011;55114;52.052;5.238;2023-03-23T07:13:35;8.27;;;1.70;;
68284;SDS011;55114;52.052;5.238;2023-03-23T07:16:04;6.28;;;1.45;;
68284;SDS011;55114;52.052;5.238;2023-03-23T07:18:31;7.05;;;1.63;;
68284;SDS011;55114;52.052;5.238;2023-03-23T07:20:57;11.10;;;1.80;;
68284;SDS011;55114;52.052;5.238;2023-03-23T07:23:23;7.18;;;1.52;;
68284;SDS011;55114;52.052;5.238;2023-03-23T07:25:49;7.57;;;1.60;;
68284;SDS011;55114;52.052;5.238;2023-03-23T07:28:15;8.02;;;1.42;;
68284;SDS011;55114;52.052;5.238;2023-03-23T07:30:41;6.78;;;2.00;;
68284;SDS011;55114;52.052;5.238;2023-03-23T07:33:08;7.03;;;1.57;;
68284;SDS011;55114;52.052;5.238;2023-03-23T07:35:35;9.15;;;1.58;;
68284;SDS011;55114;52.052;5.238;2023-03-23T07:38:04;5.60;;;1.50;;
68284;SDS011;55114;52.052;5.238;2023-03-23T07:40:31;6.22;;;1.52;;
68284;SDS011;55114;52.052;5.238;2023-03-23T07:43:01;5.78;;;1.60;;
68284;SDS011;55114;52.052;5.238;2023-03-23T07:45:27;9.37;;;2.50;;
68284;SDS011;55114;52.052;5.238;2023-03-23T07:47:54;8.38;;;2.10;;
68284;SDS011;55114;52.052;5.238;2023-03-23T07:50:20;7.03;;;2.00;;
68284;SDS011;55114;52.052;5.238;2023-03-23T07:52:49;10.88;;;2.17;;
68284;SDS011;55114;52.052;5.238;2023-03-23T07:55:15;6.70;;;1.73;;
68284;SDS011;55114;52.052;5.238;2023-03-23T07:57:45;8.03;;;2.10;;
68284;SDS011;55114;52.052;5.238;2023-03-23T08:00:12;7.00;;;2.08;;
68284;SDS011;55114;52.052;5.238;2023-03-23T08:02:44;8.23;;;1.80;;
68284;SDS011;55114;52.052;5.238;2023-03-23T08:05:11;4.57;;;1.60;;
68284;SDS011;55114;52.052;5.238;2023-03-23T08:07:38;7.85;;;1.70;;
68284;SDS011;55114;52.052;5.238;2023-03-23T08:10:05;10.73;;;2.13;;
68284;SDS011;55114;52.052;5.238;2023-03-23T08:12:35;8.43;;;1.95;;
68284;SDS011;55114;52.052;5.238;2023-03-23T08:15:02;6.50;;;1.73;;
68284;SDS011;55114;52.052;5.238;2023-03-23T08:17:28;6.45;;;1.60;;
68284;SDS011;55114;52.052;5.238;2023-03-23T08:19:54;7.47;;;1.98;;
68284;SDS011;55114;52.052;5.238;2023-03-23T08:22:20;7.70;;;1.90;;
68284;SDS011;55114;52.052;5.238;2023-03-23T08:24:46;6.20;;;1.60;;
68284;SDS011;55114;52.052;5.238;2023-03-23T08:27:13;5.93;;;1.70;;
68284;SDS011;55114;52.052;5.238;2023-03-23T08:29:39;8.77;;;2.50;;
68284;SDS011;55114;52.052;5.238;2023-03-23T08:32:06;7.88;;;1.77;;
68284;SDS011;55114;52.052;5.238;2023-03-23T08:34:32;8.57;;;1.50;;
68284;SDS011;55114;52.052;5.238;2023-03-23T08:36:58;6.60;;;1.80;;
68284;SDS011;55114;52.052;5.238;2023-03-23T08:39:24;6.68;;;1.77;;
68284;SDS011;55114;52.052;5.238;2023-03-23T08:41:50;7.88;;;1.63;;
68284;SDS011;55114;52.052;5.238;2023-03-23T08:44:16;4.95;;;1.75;;
68284;SDS011;55114;52.052;5.238;2023-03-23T08:46:42;5.47;;;1.50;;
68284;SDS011;55114;52.052;5.238;2023-03-23T08:49:09;5.85;;;1.55;;
68284;SDS011;55114;52.052;5.238;2023-03-23T08:51:35;8.40;;;1.75;;
68284;SDS011;55114;52.052;5.238;2023-03-23T08:54:02;7.35;;;1.77;;
68284;SDS011;55114;52.052;5.238;2023-03-23T08:56:28;6.32;;;1.80;;
68284;SDS011;55114;52.052;5.238;2023-03-23T08:58:54;6.60;;;1.47;;
68284;SDS011;55114;52.052;5.238;2023-03-23T09:01:20;5.53;;;1.40;;
68284;SDS011;55114;52.052;5.238;2023-03-23T09:03:46;7.03;;;1.50;;
68284;SDS011;55114;52.052;5.238;2023-03-23T09:06:13;9.40;;;2.15;;
68284;SDS011;55114;52.052;5.238;2023-03-23T09:08:39;7.40;;;1.52;;
68284;SDS011;55114;52.052;5.238;2023-03-23T09:11:07;7.97;;;1.70;;
68284;SDS011;55114;52.052;5.238;2023-03-23T09:13:36;8.80;;;1.63;;
68284;SDS011;55114;52.052;5.238;2023-03-23T09:16:04;7.50;;;1.80;;
68284;SDS011;55114;52.052;5.238;2023-03-23T09:18:30;7.28;;;1.80;;
68284;SDS011;55114;52.052;5.238;2023-03-23T09:20:57;6.97;;;1.80;;
68284;SDS011;55114;52.052;5.238;2023-03-23T09:23:24;10.63;;;1.60;;
68284;SDS011;55114;52.052;5.238;2023-03-23T09:25:50;9.35;;;1.50;;
68284;SDS011;55114;52.052;5.238;2023-03-23T09:28:17;5.43;;;1.50;;
68284;SDS011;55114;52.052;5.238;2023-03-23T09:30:43;8.35;;;1.90;;
68284;SDS011;55114;52.052;5.238;2023-03-23T09:33:10;7.03;;;2.00;;
68284;SDS011;55114;52.052;5.238;2023-03-23T09:35:37;9.07;;;1.60;;
68284;SDS011;55114;52.052;5.238;2023-03-23T09:38:04;11.27;;;1.80;;
68284;SDS011;55114;52.052;5.238;2023-03-23T09:40:38;9.60;;;1.40;;
68284;SDS011;55114;52.052;5.238;2023-03-23T09:46:13;10.80;;;2.47;;
68284;SDS011;55114;52.052;5.238;2023-03-23T09:51:27;6.95;;;1.27;;
68284;SDS011;55114;52.052;5.238;2023-03-23T09:54:00;8.13;;;1.98;;
68284;SDS011;55114;52.052;5.238;2023-03-23T09:56:28;8.35;;;2.00;;
68284;SDS011;55114;52.052;5.238;2023-03-23T09:59:39;7.70;;;2.15;;
68284;SDS011;55114;52.052;5.238;2023-03-23T10:01:47;8.30;;;1.77;;
68284;SDS011;55114;52.052;5.238;2023-03-23T10:06:59;8.52;;;1.42;;
68284;SDS011;55114;52.052;5.238;2023-03-23T10:09:27;9.95;;;1.88;;
68284;SDS011;55114;52.052;5.238;2023-03-23T10:19:37;10.02;;;1.63;;
68284;SDS011;55114;52.052;5.238;2023-03-23T10:22:10;9.55;;;1.73;;
68284;SDS011;55114;52.052;5.238;2023-03-23T10:24:52;8.23;;;1.70;;
68284;SDS011;55114;52.052;5.238;2023-03-23T10:29:50;7.75;;;1.73;;
68284;SDS011;55114;52.052;5.238;2023-03-23T10:32:34;11.18;;;1.85;;
68284;SDS011;55114;52.052;5.238;2023-03-23T10:35:04;7.90;;;1.48;;
68284;SDS011;55114;52.052;5.238;2023-03-23T10:37:31;7.88;;;1.55;;
68284;SDS011;55114;52.052;5.238;2023-03-23T10:39:59;10.87;;;2.00;;
68284;SDS011;55114;52.052;5.238;2023-03-23T10:42:35;7.10;;;1.60;;
68284;SDS011;55114;52.052;5.238;2023-03-23T10:47:39;8.57;;;1.77;;
68284;SDS011;55114;52.052;5.238;2023-03-23T10:50:06;8.20;;;1.60;;
68284;SDS011;55114;52.052;5.238;2023-03-23T10:52:33;11.67;;;1.93;;
68284;SDS011;55114;52.052;5.238;2023-03-23T10:55:07;8.27;;;1.45;;
68284;SDS011;55114;52.052;5.238;2023-03-23T10:57:34;10.38;;;2.15;;
68284;SDS011;55114;52.052;5.238;2023-03-23T11:00:16;10.95;;;1.40;;
68284;SDS011;55114;52.052;5.238;2023-03-23T11:02:47;9.32;;;1.80;;
68284;SDS011;55114;52.052;5.238;2023-03-23T11:05:23;8.17;;;1.70;;
68284;SDS011;55114;52.052;5.238;2023-03-23T11:07:53;10.75;;;2.00;;
68284;SDS011;55114;52.052;5.238;2023-03-23T11:10:42;9.20;;;1.33;;
68284;SDS011;55114;52.052;5.238;2023-03-23T11:13:11;6.45;;;1.38;;
68284;SDS011;55114;52.052;5.238;2023-03-23T11:15:39;7.80;;;1.50;;
68284;SDS011;55114;52.052;5.238;2023-03-23T11:18:11;6.83;;;1.43;;
68284;SDS011;55114;52.052;5.238;2023-03-23T11:20:42;5.97;;;1.63;;
68284;SDS011;55114;52.052;5.238;2023-03-23T11:23:10;6.35;;;1.50;;
68284;SDS011;55114;52.052;5.238;2023-03-23T11:28:25;8.07;;;1.70;;
68284;SDS011;55114;52.052;5.238;2023-03-23T11:30:53;9.13;;;1.77;;
68284;SDS011;55114;52.052;5.238;2023-03-23T11:33:19;6.85;;;1.65;;
68284;SDS011;55114;52.052;5.238;2023-03-23T11:35:45;8.75;;;1.92;;
68284;SDS011;55114;52.052;5.238;2023-03-23T11:38:16;8.68;;;1.42;;
68284;SDS011;55114;52.052;5.238;2023-03-23T11:40:44;9.63;;;1.77;;
68284;SDS011;55114;52.052;5.238;2023-03-23T11:43:13;6.57;;;1.40;;
68284;SDS011;55114;52.052;5.238;2023-03-23T11:45:46;7.20;;;1.77;;
68284;SDS011;55114;52.052;5.238;2023-03-23T11:51:06;11.70;;;1.73;;
68284;SDS011;55114;52.052;5.238;2023-03-23T11:53:37;9.38;;;1.63;;
68284;SDS011;55114;52.052;5.238;2023-03-23T11:58:35;6.70;;;1.45;;
68284;SDS011;55114;52.052;5.238;2023-03-23T12:01:06;9.50;;;1.83;;
68284;SDS011;55114;52.052;5.238;2023-03-23T12:06:28;7.47;;;1.70;;
68284;SDS011;55114;52.052;5.238;2023-03-23T12:09:06;6.77;;;1.47;;
68284;SDS011;55114;52.052;5.238;2023-03-23T12:11:38;6.22;;;1.40;;
68284;SDS011;55114;52.052;5.238;2023-03-23T12:14:25;9.15;;;1.50;;
68284;SDS011;55114;52.052;5.238;2023-03-23T12:25:19;7.47;;;1.40;;
68284;SDS011;55114;52.052;5.238;2023-03-23T12:35:24;5.53;;;1.70;;
68284;SDS011;55114;52.052;5.238;2023-03-23T12:38:13;6.22;;;1.50;;
68284;SDS011;55114;52.052;5.238;2023-03-23T12:48:33;6.13;;;1.30;;
68284;SDS011;55114;52.052;5.238;2023-03-23T12:51:13;5.85;;;1.45;;
68284;SDS011;55114;52.052;5.238;2023-03-23T12:56:22;7.10;;;1.83;;
68284;SDS011;55114;52.052;5.238;2023-03-23T12:58:50;5.25;;;1.50;;
68284;SDS011;55114;52.052;5.238;2023-03-23T13:01:21;7.73;;;1.10;;
68284;SDS011;55114;52.052;5.238;2023-03-23T13:06:29;8.93;;;2.15;;
68284;SDS011;55114;52.052;5.238;2023-03-23T13:11:34;5.70;;;1.25;;
68284;SDS011;55114;52.052;5.238;2023-03-23T13:16:43;5.95;;;1.42;;
68284;SDS011;55114;52.052;5.238;2023-03-23T13:21:46;4.78;;;1.23;;
68284;SDS011;55114;52.052;5.238;2023-03-23T13:24:16;5.88;;;1.83;;
68284;SDS011;55114;52.052;5.238;2023-03-23T13:26:43;4.00;;;1.20;;
68284;SDS011;55114;52.052;5.238;2023-03-23T13:29:13;6.22;;;1.65;;
68284;SDS011;55114;52.052;5.238;2023-03-23T13:31:40;7.50;;;1.40;;
68284;SDS011;55114;52.052;5.238;2023-03-23T13:36:37;5.43;;;1.40;;
68284;SDS011;55114;52.052;5.238;2023-03-23T13:39:04;5.90;;;1.37;;
68284;SDS011;55114;52.052;5.238;2023-03-23T13:41:32;7.32;;;1.63;;
68284;SDS011;55114;52.052;5.238;2023-03-23T13:44:14;6.70;;;1.30;;
68284;SDS011;55114;52.052;5.238;2023-03-23T13:46:42;7.07;;;1.85;;
68284;SDS011;55114;52.052;5.238;2023-03-23T13:49:20;8.48;;;1.60;;
68284;SDS011;55114;52.052;5.238;2023-03-23T13:51:59;7.47;;;1.50;;
68284;SDS011;55114;52.052;5.238;2023-03-23T13:54:30;6.63;;;1.50;;
68284;SDS011;55114;52.052;5.238;2023-03-23T13:57:01;5.80;;;1.40;;
68284;SDS011;55114;52.052;5.238;2023-03-23T14:01:54;5.72;;;1.50;;
68284;SDS011;55114;52.052;5.238;2023-03-23T14:04:21;5.93;;;1.70;;
68284;SDS011;55114;52.052;5.238;2023-03-23T14:06:49;5.78;;;1.60;;
68284;SDS011;55114;52.052;5.238;2023-03-23T14:09:24;5.10;;;1.17;;
68284;SDS011;55114;52.052;5.238;2023-03-23T14:12:02;6.30;;;1.73;;
68284;SDS011;55114;52.052;5.238;2023-03-23T14:14:43;5.22;;;1.70;;
68284;SDS011;55114;52.052;5.238;2023-03-23T14:17:17;6.93;;;1.70;;
68284;SDS011;55114;52.052;5.238;2023-03-23T14:19:46;6.75;;;1.60;;
68284;SDS011;55114;52.052;5.238;2023-03-23T14:22:27;6.80;;;1.80;;
68284;SDS011;55114;52.052;5.238;2023-03-23T14:24:59;6.80;;;2.08;;
68284;SDS011;55114;52.052;5.238;2023-03-23T14:27:26;5.50;;;1.70;;
68284;SDS011;55114;52.052;5.238;2023-03-23T14:30:03;7.53;;;1.77;;
68284;SDS011;55114;52.052;5.238;2023-03-23T14:32:30;5.80;;;1.23;;
68284;SDS011;55114;52.052;5.238;2023-03-23T14:34:57;5.78;;;1.40;;
68284;SDS011;55114;52.052;5.238;2023-03-23T14:37:24;5.82;;;1.20;;
68284;SDS011;55114;52.052;5.238;2023-03-23T14:39:54;8.70;;;1.38;;
68284;SDS011;55114;52.052;5.238;2023-03-23T14:42:29;8.43;;;1.77;;
68284;SDS011;55114;52.052;5.238;2023-03-23T14:44:56;8.55;;;1.65;;
68284;SDS011;55114;52.052;5.238;2023-03-23T14:47:27;5.70;;;1.25;;
68284;SDS011;55114;52.052;5.238;2023-03-23T14:49:55;6.35;;;1.63;;
68284;SDS011;55114;52.052;5.238;2023-03-23T14:52:23;7.47;;;1.80;;
68284;SDS011;55114;52.052;5.238;2023-03-23T14:54:50;10.03;;;1.57;;
68284;SDS011;55114;52.052;5.238;2023-03-23T14:57:17;7.78;;;1.48;;
68284;SDS011;55114;52.052;5.238;2023-03-23T14:59:45;6.20;;;1.50;;
68284;SDS011;55114;52.052;5.238;2023-03-23T15:02:18;8.95;;;1.45;;
68284;SDS011;55114;52.052;5.238;2023-03-23T15:04:48;6.90;;;1.58;;
68284;SDS011;55114;52.052;5.238;2023-03-23T15:07:15;6.53;;;1.37;;
68284;SDS011;55114;52.052;5.238;2023-03-23T15:09:43;6.35;;;1.40;;
68284;SDS011;55114;52.052;5.238;2023-03-23T15:12:21;6.78;;;1.50;;
68284;SDS011;55114;52.052;5.238;2023-03-23T15:14:49;5.80;;;1.20;;
68284;SDS011;55114;52.052;5.238;2023-03-23T15:17:21;8.98;;;1.80;;
68284;SDS011;55114;52.052;5.238;2023-03-23T15:19:47;7.27;;;1.70;;
68284;SDS011;55114;52.052;5.238;2023-03-23T15:24:43;6.43;;;1.50;;
68284;SDS011;55114;52.052;5.238;2023-03-23T15:27:14;7.70;;;1.65;;
68284;SDS011;55114;52.052;5.238;2023-03-23T15:29:48;7.97;;;1.60;;
68284;SDS011;55114;52.052;5.238;2023-03-23T15:32:19;7.10;;;1.67;;
68284;SDS011;55114;52.052;5.238;2023-03-23T15:34:46;9.32;;;1.42;;
68284;SDS011;55114;52.052;5.238;2023-03-23T15:37:19;8.90;;;1.60;;
68284;SDS011;55114;52.052;5.238;2023-03-23T15:39:46;8.13;;;1.52;;
68284;SDS011;55114;52.052;5.238;2023-03-23T15:42:20;6.45;;;1.40;;
68284;SDS011;55114;52.052;5.238;2023-03-23T15:44:53;5.93;;;1.30;;
68284;SDS011;55114;52.052;5.238;2023-03-23T15:47:20;7.30;;;1.60;;
68284;SDS011;55114;52.052;5.238;2023-03-23T15:49:47;6.85;;;1.60;;
68284;SDS011;55114;52.052;5.238;2023-03-23T15:52:23;7.63;;;1.88;;
68284;SDS011;55114;52.052;5.238;2023-03-23T15:54:50;10.80;;;2.50;;
68284;SDS011;55114;52.052;5.238;2023-03-23T15:57:16;5.87;;;1.60;;
68284;SDS011;55114;52.052;5.238;2023-03-23T15:59:42;8.65;;;1.70;;
68284;SDS011;55114;52.052;5.238;2023-03-23T16:02:13;7.72;;;1.70;;
68284;SDS011;55114;52.052;5.238;2023-03-23T16:04:43;7.80;;;1.63;;
68284;SDS011;55114;52.052;5.238;2023-03-23T16:07:13;8.93;;;1.98;;
68284;SDS011;55114;52.052;5.238;2023-03-23T16:09:40;10.70;;;1.87;;
68284;SDS011;55114;52.052;5.238;2023-03-23T16:12:11;8.00;;;2.08;;
68284;SDS011;55114;52.052;5.238;2023-03-23T16:14:39;9.10;;;2.28;;
68284;SDS011;55114;52.052;5.238;2023-03-23T16:17:08;8.98;;;1.73;;
68284;SDS011;55114;52.052;5.238;2023-03-23T16:19:36;7.90;;;1.75;;
68284;SDS011;55114;52.052;5.238;2023-03-23T16:22:04;7.87;;;1.67;;
68284;SDS011;55114;52.052;5.238;2023-03-23T16:24:31;8.65;;;1.67;;
68284;SDS011;55114;52.052;5.238;2023-03-23T16:26:58;7.57;;;2.22;;
68284;SDS011;55114;52.052;5.238;2023-03-23T16:29:25;12.60;;;2.30;;
68284;SDS011;55114;52.052;5.238;2023-03-23T16:32:12;9.32;;;2.22;;